Hoskins, NE (68740)

6:57 AM CST on February 10, 2016 (GMT -0600)
Woodland Park #1 | | Change Station
CLOSE
Current Station
Personal Weather Station
Location: Norfolk, NE
Elevation: 1700 ft
Nearby Weather Stations

Elev 1700 ft 42.05 °N, 97.35 °W | Updated 4 seconds ago

Overcast
Overcast
24.1 °F
Feels Like 24 °F
N
0.0
Wind Variable Wind from SE
Gusts 0.0 mph

Today
High -- | Low -- °F
--% Chance of Precip.
Yesterday
High -- | Low -- °F
Precip. -- in
Pressure 30.00 in
Visibility 10.0 miles
Clouds Scattered Clouds 7000 ft
Windchill 24 °F
Dew Point 20 °F
Humidity 86%
Rainfall 0.00 in
Snow Depth Not available.
7:32 AM 5:54 PM
Waxing Crescent, 5% visible
METAR KOFK 101156Z AUTO 15006KT 10SM SCT070 M04/M07 A2994 RMK AO2 SLP159 T10391067 11028 21039 58029
Pressure 30.00 in
Visibility 10.0 miles
Clouds Scattered Clouds 7000 ft
Windchill 24 °F
Dew Point 20 °F
Humidity 86%
Rainfall 0.00 in
Snow Depth Not available.
7:32 AM 5:54 PM
Waxing Crescent, 5% visible
METAR KOFK 101156Z AUTO 15006KT 10SM SCT070 M04/M07 A2994 RMK AO2 SLP159 T10391067 11028 21039 58029

10-Day Weather Forecast

Almanac

Astronomy

Feb. 10, 2016 Rise Set
Actual Time
Civil Twilight
Nautical Twilight
Astronomical Twilight
Moon
Length of Visible Light
Length of Day
Tomorrow will be .
, % of the Moon is Illuminated

Today's Extremes

State Highs State Lows

Community

WunderPhotos

Upload Photos

1,891,837 photos uploaded!

WunderBlog® & News

Nearby

Air Quality

  Air Quality AQ Index Pollutant
Not available.

Snow Depth

Station Depth Elevation

Earthquake Activity

City Distance Mag. Time & Date
Minimum magnitude displayed is 2.5.

Coastal Water Temperatures

Place Temperature

Stations

Nearby Weather Stations

Station Location Temp. Windchill Dew Point Humidity Wind Precip. Elev Updated Type
                   

Watches & Warnings

There are currently no watches in effect.